createdAt,value
2019-02-26T00:00:12.763Z,3.00
2019-02-26T00:02:56.295Z,3.20
2019-02-26T00:05:30.687Z,3.10
2019-02-26T00:08:05.205Z,3.10
2019-02-26T00:10:39.015Z,3.20
2019-02-26T00:13:10.692Z,3.10
2019-02-26T00:15:43.157Z,3.10
2019-02-26T00:18:16.833Z,3.00
2019-02-26T00:20:50.642Z,3.00
2019-02-26T00:23:23.606Z,3.00
2019-02-26T00:25:54.745Z,3.00
2019-02-26T00:28:26.490Z,3.00
2019-02-26T00:30:59.358Z,2.90
2019-02-26T00:33:30.733Z,2.90
2019-02-26T00:36:39.296Z,2.80
2019-02-26T00:39:10.516Z,2.70
2019-02-26T00:41:41.922Z,2.70
2019-02-26T00:44:14.724Z,2.70
2019-02-26T00:46:46.369Z,2.60
2019-02-26T00:49:21.591Z,2.50
2019-02-26T00:51:53.092Z,2.50
2019-02-26T00:54:24.492Z,2.40
2019-02-26T00:57:01.093Z,2.40
2019-02-26T00:59:30.846Z,2.30
2019-02-26T01:02:03.603Z,2.30
2019-02-26T01:04:39.630Z,2.20
2019-02-26T01:07:19.090Z,2.20
2019-02-26T01:09:52.408Z,2.10
2019-02-26T01:12:25.466Z,2.10
2019-02-26T01:14:58.274Z,2.10
2019-02-26T01:17:31.610Z,2.00
2019-02-26T01:20:06.150Z,2.00
2019-02-26T01:22:40.251Z,2.00
2019-02-26T01:25:27.685Z,1.90
2019-02-26T01:28:01.452Z,1.90
2019-02-26T01:30:35.655Z,1.90
2019-02-26T01:33:07.426Z,1.80
2019-02-26T01:35:39.637Z,1.90
2019-02-26T01:38:12.614Z,1.90
2019-02-26T01:40:46.508Z,1.90
2019-02-26T01:43:18.401Z,1.90
2019-02-26T01:49:02.033Z,2.00
2019-02-26T01:51:33.584Z,2.00
2019-02-26T01:54:07.514Z,1.90
2019-02-26T01:59:34.638Z,1.90
2019-02-26T02:02:12.183Z,1.90
2019-02-26T02:04:43.372Z,1.90
2019-02-26T02:07:15.416Z,1.80
2019-02-26T02:09:50.711Z,1.80
2019-02-26T02:12:20.860Z,1.70
2019-02-26T02:14:52.948Z,1.70
2019-02-26T02:17:24.768Z,1.70
2019-02-26T02:19:56.406Z,1.80
2019-02-26T02:22:29.512Z,1.90
2019-02-26T02:25:02.729Z,2.00
2019-02-26T02:27:34.372Z,2.00
2019-02-26T02:30:22.698Z,2.00
2019-02-26T02:32:53.022Z,2.00
2019-02-26T02:35:23.020Z,2.10
2019-02-26T02:38:00.072Z,2.10
2019-02-26T02:40:32.986Z,2.10
2019-02-26T02:43:07.953Z,2.20
2019-02-26T02:45:38.717Z,2.40
2019-02-26T02:48:11.751Z,2.40
2019-02-26T02:50:45.138Z,2.40
2019-02-26T02:53:21.247Z,2.50
2019-02-26T02:55:52.686Z,2.50
2019-02-26T02:58:26.078Z,2.50
2019-02-26T03:01:00.302Z,2.50
2019-02-26T03:03:34.360Z,2.50
2019-02-26T03:06:07.756Z,2.60
2019-02-26T03:08:41.638Z,2.80
2019-02-26T03:11:14.019Z,2.80
2019-02-26T03:13:45.872Z,2.80
2019-02-26T03:16:21.099Z,2.80
2019-02-26T03:18:52.590Z,2.80
2019-02-26T03:21:24.746Z,2.90
2019-02-26T03:23:57.780Z,2.80
2019-02-26T03:26:30.326Z,2.90
2019-02-26T03:29:01.999Z,2.90
2019-02-26T03:31:39.720Z,2.90
2019-02-26T03:34:10.483Z,2.90
2019-02-26T03:36:45.073Z,2.80
2019-02-26T03:39:14.746Z,2.80
2019-02-26T03:41:48.478Z,2.80
2019-02-26T03:44:18.947Z,2.80
2019-02-26T03:46:50.959Z,2.80
2019-02-26T03:49:26.346Z,2.80
2019-02-26T03:51:59.057Z,2.80
2019-02-26T03:54:27.094Z,2.80
2019-02-26T03:56:58.445Z,2.80
2019-02-26T03:59:30.163Z,2.80
2019-02-26T04:02:01.569Z,2.80
2019-02-26T04:04:33.747Z,2.80
2019-02-26T04:07:08.104Z,2.70
2019-02-26T04:09:41.809Z,2.70
2019-02-26T04:12:13.098Z,2.70
2019-02-26T04:14:44.063Z,2.70
2019-02-26T04:17:15.835Z,2.70
2019-02-26T04:19:48.891Z,2.80
2019-02-26T04:22:29.246Z,2.80
2019-02-26T04:25:06.359Z,2.90
2019-02-26T04:27:53.852Z,2.90
2019-02-26T04:30:56.480Z,2.90
2019-02-26T04:33:50.297Z,2.90
2019-02-26T04:36:27.481Z,2.90
2019-02-26T04:39:10.868Z,2.90
2019-02-26T04:41:57.829Z,2.90
2019-02-26T04:44:47.675Z,2.80
2019-02-26T04:47:18.397Z,2.80
2019-02-26T04:49:50.956Z,2.80
2019-02-26T04:52:21.802Z,2.80
2019-02-26T04:54:54.898Z,2.80
2019-02-26T04:57:26.281Z,2.80
2019-02-26T05:00:01.047Z,2.80
2019-02-26T05:02:31.946Z,2.80
2019-02-26T05:05:03.874Z,2.80
2019-02-26T05:07:36.117Z,2.80
2019-02-26T05:10:09.286Z,2.70
2019-02-26T05:12:41.210Z,2.70
2019-02-26T05:15:17.000Z,2.70
2019-02-26T05:17:45.905Z,2.60
2019-02-26T05:20:18.900Z,2.60
2019-02-26T05:22:49.062Z,2.60
2019-02-26T05:25:20.493Z,2.60
2019-02-26T05:27:52.457Z,2.60
2019-02-26T05:30:24.058Z,2.60
2019-02-26T05:32:57.941Z,2.50
2019-02-26T05:35:28.357Z,2.50
2019-02-26T05:38:03.061Z,2.40
2019-02-26T05:40:37.372Z,2.30
2019-02-26T05:43:06.747Z,2.30
2019-02-26T05:45:38.911Z,2.30
2019-02-26T05:48:09.700Z,2.30
2019-02-26T05:50:43.842Z,2.30
2019-02-26T05:53:13.943Z,2.30
2019-02-26T05:55:47.680Z,2.30
2019-02-26T05:58:20.865Z,2.30
2019-02-26T06:00:50.559Z,2.20
2019-02-26T06:03:23.801Z,2.20
2019-02-26T06:05:58.277Z,2.10
2019-02-26T06:08:33.704Z,2.10
2019-02-26T06:11:03.833Z,2.10
2019-02-26T06:13:37.673Z,2.00
2019-02-26T06:16:07.635Z,2.00
2019-02-26T06:18:41.224Z,2.00
2019-02-26T06:21:13.783Z,2.00
2019-02-26T06:23:46.604Z,2.00
2019-02-26T06:26:18.559Z,2.00
2019-02-26T06:28:57.867Z,2.00
2019-02-26T06:31:29.593Z,2.00
2019-02-26T06:34:06.447Z,2.10
2019-02-26T06:36:38.043Z,2.20
2019-02-26T06:39:10.448Z,2.20
2019-02-26T06:41:44.441Z,2.20
2019-02-26T06:44:16.578Z,2.20
2019-02-26T06:46:47.536Z,2.30
2019-02-26T06:49:22.805Z,2.40
2019-02-26T06:51:54.305Z,2.40
2019-02-26T06:54:31.760Z,2.40
2019-02-26T06:57:04.601Z,2.40
2019-02-26T07:00:09.795Z,2.40
2019-02-26T07:02:46.842Z,2.40
2019-02-26T07:05:23.833Z,2.40
2019-02-26T07:07:56.513Z,2.50
2019-02-26T07:14:16.990Z,2.60
2019-02-26T07:16:49.679Z,2.80
2019-02-26T07:19:22.414Z,2.90
2019-02-26T07:21:55.235Z,2.90
2019-02-26T07:24:27.208Z,3.00
2019-02-26T07:27:02.472Z,3.00
2019-02-26T07:29:36.885Z,3.10
2019-02-26T07:32:24.615Z,3.20
2019-02-26T07:52:33.057Z,3.40
2019-02-26T07:58:45.881Z,3.50
2019-02-26T08:02:01.239Z,3.60
2019-02-26T08:04:38.773Z,3.70
2019-02-26T08:18:12.482Z,4.10
2019-02-26T08:20:43.868Z,4.30
2019-02-26T08:23:19.303Z,4.30
2019-02-26T08:25:52.039Z,4.40
2019-02-26T08:28:24.495Z,4.50
2019-02-26T08:30:57.206Z,4.60
2019-02-26T08:33:27.741Z,4.60
2019-02-26T08:36:26.371Z,4.70
2019-02-26T08:38:58.197Z,4.90
2019-02-26T08:41:30.839Z,5.00
2019-02-26T08:44:05.582Z,5.30
2019-02-26T08:46:47.364Z,6.00
2019-02-26T09:02:13.243Z,8.90
2019-02-26T09:04:45.176Z,8.90
2019-02-26T09:07:18.947Z,9.00
2019-02-26T09:09:52.078Z,9.30
2019-02-26T09:12:24.501Z,9.50
2019-02-26T09:14:59.134Z,9.90
2019-02-26T09:17:32.478Z,10.50
2019-02-26T09:20:09.765Z,10.80
2019-02-26T09:22:45.755Z,11.10
2019-02-26T09:25:20.402Z,11.40
2019-02-26T09:27:51.274Z,11.90
2019-02-26T09:30:24.973Z,12.40
2019-02-26T09:32:59.057Z,12.80
2019-02-26T09:35:33.121Z,13.10
2019-02-26T09:38:03.759Z,13.10
2019-02-26T09:40:35.704Z,12.80
2019-02-26T09:43:08.941Z,13.00
2019-02-26T09:45:43.052Z,13.20
2019-02-26T09:48:15.263Z,13.50
2019-02-26T09:50:46.384Z,13.50
2019-02-26T09:53:18.117Z,13.50
2019-02-26T09:55:48.926Z,13.60
2019-02-26T09:58:21.209Z,13.70
2019-02-26T10:00:56.724Z,13.90
2019-02-26T10:03:29.704Z,14.30
2019-02-26T10:06:02.323Z,14.60
2019-02-26T10:08:34.836Z,14.70
2019-02-26T10:11:06.236Z,14.70
2019-02-26T10:13:39.560Z,14.90
2019-02-26T10:16:11.815Z,15.00
2019-02-26T10:18:47.158Z,15.40
2019-02-26T10:21:20.579Z,15.50
2019-02-26T10:23:54.074Z,15.50
2019-02-26T10:26:28.708Z,15.60
2019-02-26T10:29:04.387Z,15.80
2019-02-26T10:31:40.401Z,15.80
2019-02-26T10:34:12.602Z,16.00
2019-02-26T10:36:46.296Z,16.20
2019-02-26T10:39:20.089Z,16.30
2019-02-26T10:41:49.937Z,16.40
2019-02-26T10:44:20.684Z,16.30
2019-02-26T10:46:51.481Z,16.50
2019-02-26T10:49:21.870Z,16.50
2019-02-26T10:51:55.568Z,16.60
2019-02-26T10:54:28.677Z,16.60
2019-02-26T10:57:00.388Z,16.50
2019-02-26T10:59:33.732Z,16.60
2019-02-26T11:02:04.819Z,17.00
2019-02-26T11:04:38.094Z,17.10
2019-02-26T11:07:09.383Z,17.00
2019-02-26T11:09:40.778Z,17.10
2019-02-26T11:12:12.371Z,17.10
2019-02-26T11:14:44.628Z,17.20
2019-02-26T11:17:17.883Z,17.20
2019-02-26T11:19:49.397Z,17.30
2019-02-26T11:22:23.405Z,17.30
2019-02-26T11:25:00.978Z,17.40
2019-02-26T11:27:37.777Z,17.40
2019-02-26T11:30:12.627Z,17.50
2019-02-26T11:33:02.071Z,17.40
2019-02-26T11:38:46.702Z,17.50
2019-02-26T11:41:36.206Z,17.30
2019-02-26T11:45:02.702Z,17.20
2019-02-26T11:47:34.435Z,17.00
2019-02-26T11:50:11.711Z,17.00
2019-02-26T11:52:43.946Z,17.20
2019-02-26T11:55:19.527Z,17.20
2019-02-26T11:57:54.312Z,17.20
2019-02-26T12:00:56.936Z,17.00
2019-02-26T12:03:45.745Z,17.00
2019-02-26T12:06:58.375Z,17.10
2019-02-26T12:09:57.762Z,16.90
2019-02-26T12:12:45.031Z,17.10
2019-02-26T12:21:58.114Z,17.00
2019-02-26T12:24:31.456Z,16.90
2019-02-26T12:27:03.787Z,16.70
2019-02-26T12:29:35.912Z,16.70
2019-02-26T12:32:09.088Z,16.60
2019-02-26T12:35:17.710Z,16.60
2019-02-26T12:37:55.832Z,16.60
2019-02-26T12:40:25.744Z,16.50
2019-02-26T12:43:30.204Z,16.50
2019-02-26T12:46:01.493Z,16.40
2019-02-26T12:48:41.826Z,16.30
2019-02-26T12:51:25.270Z,16.30
2019-02-26T12:53:55.233Z,16.30
2019-02-26T13:01:07.223Z,16.40
2019-02-26T13:10:46.403Z,15.90
2019-02-26T13:13:16.387Z,15.90
2019-02-26T13:15:59.559Z,15.90
2019-02-26T13:18:31.570Z,15.80
2019-02-26T13:21:03.959Z,15.60
2019-02-26T13:23:42.707Z,15.60
2019-02-26T13:29:23.742Z,15.60
2019-02-26T13:31:59.064Z,15.40
2019-02-26T13:34:27.388Z,15.60
2019-02-26T13:36:59.297Z,15.60
2019-02-26T13:39:38.239Z,15.60
2019-02-26T13:42:10.705Z,15.60
2019-02-26T13:44:38.694Z,15.50
2019-02-26T13:47:10.065Z,15.50
2019-02-26T13:49:40.985Z,15.50
2019-02-26T13:52:12.568Z,15.50
2019-02-26T13:54:43.481Z,15.50
2019-02-26T13:57:14.262Z,15.60
2019-02-26T13:59:48.049Z,15.50
2019-02-26T14:02:19.695Z,15.50
2019-02-26T14:04:51.276Z,15.40
2019-02-26T14:07:22.658Z,15.30
2019-02-26T14:09:54.814Z,15.20
2019-02-26T14:12:26.485Z,15.20
2019-02-26T14:15:00.355Z,15.10
2019-02-26T14:17:32.664Z,15.20
2019-02-26T14:20:06.885Z,15.10
2019-02-26T14:22:42.816Z,15.00
2019-02-26T14:25:15.175Z,14.90
2019-02-26T14:27:47.007Z,14.80
2019-02-26T14:30:24.312Z,14.80
2019-02-26T14:32:57.223Z,14.90
2019-02-26T14:35:28.544Z,14.90
2019-02-26T14:38:01.046Z,14.80
2019-02-26T14:40:32.453Z,14.70
2019-02-26T14:43:03.820Z,14.70
2019-02-26T14:45:34.809Z,14.60
2019-02-26T14:48:05.683Z,14.50
2019-02-26T14:50:37.084Z,14.40
2019-02-26T14:53:09.952Z,14.40
2019-02-26T14:55:41.204Z,14.40
2019-02-26T14:58:14.191Z,14.40
2019-02-26T15:00:57.125Z,14.30
2019-02-26T15:03:23.991Z,14.20
2019-02-26T15:05:56.776Z,14.20
2019-02-26T15:08:29.613Z,14.20
2019-02-26T15:11:02.116Z,14.20
2019-02-26T15:13:36.100Z,14.10
2019-02-26T15:16:07.534Z,14.20
2019-02-26T15:18:39.639Z,14.10
2019-02-26T15:21:12.002Z,14.10
2019-02-26T15:23:46.188Z,14.00
2019-02-26T15:26:18.359Z,14.00
2019-02-26T15:28:54.301Z,13.90
2019-02-26T15:31:29.768Z,13.80
2019-02-26T15:34:05.729Z,13.70
2019-02-26T15:36:37.073Z,13.70
2019-02-26T15:39:10.096Z,13.80
2019-02-26T15:41:42.152Z,13.70
2019-02-26T15:44:13.393Z,13.60
2019-02-26T15:46:45.120Z,13.50
2019-02-26T15:49:17.609Z,13.50
2019-02-26T15:51:51.043Z,13.40
2019-02-26T15:54:25.334Z,13.30
2019-02-26T15:56:57.649Z,13.20
2019-02-26T15:59:29.865Z,13.10
2019-02-26T16:02:01.593Z,12.90
2019-02-26T16:04:32.531Z,12.80
2019-02-26T16:07:03.673Z,12.80
2019-02-26T16:09:35.774Z,12.90
2019-02-26T16:12:06.993Z,12.80
2019-02-26T16:14:38.605Z,12.80
2019-02-26T16:17:09.967Z,12.70
2019-02-26T16:19:41.515Z,12.60
2019-02-26T16:22:12.923Z,12.50
2019-02-26T16:24:43.664Z,12.30
2019-02-26T16:27:15.705Z,12.20
2019-02-26T16:29:49.514Z,12.10
2019-02-26T16:32:22.510Z,12.00
2019-02-26T16:34:54.190Z,11.80
2019-02-26T16:37:26.520Z,11.80
2019-02-26T16:39:59.788Z,11.60
2019-02-26T16:46:14.572Z,11.40
2019-02-26T16:48:47.093Z,11.30
2019-02-26T16:51:20.957Z,11.30
2019-02-26T16:53:50.914Z,11.20
2019-02-26T16:56:22.452Z,11.10
2019-02-26T16:58:53.890Z,11.10
2019-02-26T17:01:25.536Z,11.00
2019-02-26T17:03:57.020Z,11.00
2019-02-26T17:06:28.142Z,11.00
2019-02-26T17:08:59.318Z,10.90
2019-02-26T17:11:30.619Z,10.80
2019-02-26T17:14:02.998Z,10.60
2019-02-26T17:16:35.319Z,10.70
2019-02-26T17:19:06.647Z,10.70
2019-02-26T17:21:37.892Z,10.90
2019-02-26T17:24:09.368Z,10.70
2019-02-26T17:26:44.076Z,10.60
2019-02-26T17:29:16.909Z,10.50
2019-02-26T17:31:47.725Z,10.40
2019-02-26T17:34:20.643Z,10.20
2019-02-26T17:36:54.925Z,10.10
2019-02-26T17:39:28.652Z,10.00
2019-02-26T17:42:01.009Z,9.90
2019-02-26T17:44:32.778Z,9.90
2019-02-26T17:47:05.114Z,9.80
2019-02-26T17:49:37.993Z,9.80
2019-02-26T17:52:09.821Z,9.70
2019-02-26T17:54:40.935Z,9.70
2019-02-26T17:57:11.986Z,9.60
2019-02-26T17:59:43.196Z,9.60
2019-02-26T18:02:14.233Z,9.50
2019-02-26T18:04:46.162Z,9.50
2019-02-26T18:07:17.030Z,9.40
2019-02-26T18:09:50.576Z,9.30
2019-02-26T18:12:21.729Z,9.30
2019-02-26T18:14:56.160Z,9.20
2019-02-26T18:17:28.360Z,9.10
2019-02-26T18:20:02.578Z,9.00
2019-02-26T18:22:34.369Z,8.80
2019-02-26T18:25:07.368Z,8.70
2019-02-26T18:27:39.106Z,8.60
2019-02-26T18:30:14.993Z,8.50
2019-02-26T18:32:50.152Z,8.40
2019-02-26T18:35:17.575Z,8.30
2019-02-26T18:37:48.634Z,8.20
2019-02-26T18:40:20.494Z,8.10
2019-02-26T18:42:51.612Z,8.00
2019-02-26T18:45:28.935Z,7.90
2019-02-26T18:48:00.588Z,7.80
2019-02-26T18:50:30.981Z,7.70
2019-02-26T18:53:02.550Z,7.60
2019-02-26T18:55:33.673Z,7.50
2019-02-26T18:58:05.264Z,7.40
2019-02-26T19:00:36.570Z,7.40
2019-02-26T19:03:09.326Z,7.40
2019-02-26T19:05:40.205Z,7.40
2019-02-26T19:08:11.599Z,7.30
2019-02-26T19:10:44.059Z,7.30
2019-02-26T19:13:14.611Z,7.30
2019-02-26T19:15:47.520Z,7.30
2019-02-26T19:18:18.224Z,7.20
2019-02-26T19:20:49.618Z,7.20
2019-02-26T19:23:22.090Z,7.10
2019-02-26T19:25:56.241Z,7.00
2019-02-26T19:28:28.169Z,7.00
2019-02-26T19:31:01.433Z,7.00
2019-02-26T19:33:32.992Z,6.90
2019-02-26T19:36:05.717Z,6.80
2019-02-26T19:38:37.821Z,6.80
2019-02-26T19:41:15.861Z,6.70
2019-02-26T19:43:47.425Z,6.60
2019-02-26T19:46:20.204Z,6.60
2019-02-26T19:48:52.792Z,6.50
2019-02-26T19:51:27.769Z,6.50
2019-02-26T19:54:01.591Z,6.40
2019-02-26T19:56:35.311Z,6.30
2019-02-26T19:59:07.586Z,6.20
2019-02-26T20:01:40.262Z,6.10
2019-02-26T20:04:11.673Z,6.10
2019-02-26T20:06:42.187Z,6.10
2019-02-26T20:09:13.290Z,6.00
2019-02-26T20:11:43.770Z,6.00
2019-02-26T20:14:21.291Z,5.90
2019-02-26T20:16:50.643Z,5.90
2019-02-26T20:21:58.529Z,5.70
2019-02-26T20:24:31.023Z,5.70
2019-02-26T20:27:02.430Z,5.60
2019-02-26T20:29:34.924Z,5.60
2019-02-26T20:32:06.393Z,5.60
2019-02-26T20:34:38.850Z,5.60
2019-02-26T20:37:10.351Z,5.50
2019-02-26T20:39:44.193Z,5.50
2019-02-26T20:42:15.843Z,5.50
2019-02-26T20:44:48.006Z,5.50
2019-02-26T20:47:21.601Z,5.50
2019-02-26T20:49:55.593Z,5.50
2019-02-26T20:52:28.191Z,5.50
2019-02-26T20:55:00.553Z,5.50
2019-02-26T20:57:34.895Z,5.50
2019-02-26T21:00:11.989Z,5.60
2019-02-26T21:02:45.571Z,5.60
2019-02-26T21:05:16.910Z,5.50
2019-02-26T21:07:49.617Z,5.50
2019-02-26T21:10:21.858Z,5.50
2019-02-26T21:12:55.483Z,5.50
2019-02-26T21:15:28.747Z,5.40
2019-02-26T21:18:02.292Z,5.40
2019-02-26T21:20:34.397Z,5.40
2019-02-26T21:23:06.259Z,5.30
2019-02-26T21:25:38.269Z,5.30
2019-02-26T21:28:10.048Z,5.30
2019-02-26T21:30:41.066Z,5.30
2019-02-26T21:33:12.725Z,5.20
2019-02-26T21:35:45.514Z,5.20
2019-02-26T21:38:19.152Z,5.10
2019-02-26T21:40:52.084Z,5.10
2019-02-26T21:45:58.439Z,4.90
2019-02-26T21:48:31.987Z,4.80
2019-02-26T21:51:03.859Z,4.80
2019-02-26T21:53:36.540Z,4.70
2019-02-26T21:56:11.161Z,4.60
2019-02-26T21:58:43.547Z,4.60
2019-02-26T22:01:15.133Z,4.60
2019-02-26T22:03:48.687Z,4.60
2019-02-26T22:06:20.104Z,4.60
2019-02-26T22:08:51.931Z,4.50
2019-02-26T22:11:23.411Z,4.50
2019-02-26T22:13:55.458Z,4.50
2019-02-26T22:16:26.512Z,4.40
2019-02-26T22:18:58.264Z,4.30
2019-02-26T22:21:31.476Z,4.30
2019-02-26T22:24:04.645Z,4.30
2019-02-26T22:26:36.870Z,4.20
2019-02-26T22:29:09.283Z,4.20
2019-02-26T22:31:42.958Z,4.20
2019-02-26T22:34:16.716Z,4.30
2019-02-26T22:36:48.412Z,4.20
2019-02-26T22:39:22.693Z,4.20
2019-02-26T22:41:55.360Z,4.20
2019-02-26T22:44:27.549Z,4.30
2019-02-26T22:46:59.329Z,4.20
2019-02-26T22:49:31.140Z,4.10
2019-02-26T22:52:02.683Z,4.00
2019-02-26T22:54:35.029Z,4.00
2019-02-26T22:57:06.421Z,4.00
2019-02-26T22:59:38.581Z,3.90
2019-02-26T23:02:11.055Z,3.90
2019-02-26T23:04:42.899Z,3.90
2019-02-26T23:07:15.390Z,3.90
2019-02-26T23:09:52.073Z,3.90
2019-02-26T23:12:23.834Z,3.90
2019-02-26T23:14:56.085Z,3.90
2019-02-26T23:17:29.038Z,3.80
2019-02-26T23:20:02.109Z,3.80
2019-02-26T23:22:36.261Z,3.80
2019-02-26T23:25:10.224Z,3.80
2019-02-26T23:27:41.511Z,3.80
2019-02-26T23:30:14.615Z,3.80
2019-02-26T23:32:47.384Z,3.80
2019-02-26T23:35:19.483Z,3.70
2019-02-26T23:37:51.043Z,3.70
2019-02-26T23:40:24.915Z,3.70
2019-02-26T23:42:59.047Z,3.60
2019-02-26T23:45:30.986Z,3.60
2019-02-26T23:48:07.796Z,3.60
2019-02-26T23:50:38.655Z,3.60
2019-02-26T23:53:11.292Z,3.50
2019-02-26T23:55:47.941Z,3.50
2019-02-26T23:58:20.056Z,3.50
